Time;durP1;ratioP1;P1;durP2;ratioP2;P2;SDS_P1;SDS_P2;PMS_P1;PMS_P2;Temp;Humidity;BMP_temperature;BMP_pressure;BME280_temperature;BME280_humidity;BME280_pressure;Samples;Min_cycle;Max_cycle;Signal;HPM_P1;HPM_P2
2020/12/12 00:00:13;;;;;;;13.00;8.83;;;5.10;99.90;;;;;;4996038;28;20675;-77
2020/12/12 00:02:38;;;;;;;10.37;8.67;;;5.00;99.90;;;;;;4995683;28;20422;-76
2020/12/12 00:05:04;;;;;;;11.90;7.90;;;5.10;99.90;;;;;;4995925;28;20179;-76
2020/12/12 00:07:31;;;;;;;8.30;6.87;;;5.10;99.90;;;;;;4995883;28;20175;-77
2020/12/12 00:09:56;;;;;;;10.45;7.07;;;5.00;99.90;;;;;;4995754;28;20207;-76
2020/12/12 00:12:22;;;;;;;8.67;7.20;;;5.10;99.90;;;;;;4995480;28;20219;-76
2020/12/12 00:14:47;;;;;;;9.50;8.13;;;5.20;99.90;;;;;;4995723;28;20584;-76
2020/12/12 00:17:13;;;;;;;10.87;7.53;;;5.20;99.90;;;;;;4995673;28;20202;-76
2020/12/12 00:19:38;;;;;;;10.90;8.70;;;5.20;99.90;;;;;;4995543;28;20262;-76
2020/12/12 00:22:04;;;;;;;11.07;6.93;;;5.20;99.90;;;;;;4995333;28;20568;-77
2020/12/12 00:24:30;;;;;;;8.93;7.33;;;5.10;99.90;;;;;;4995604;28;20176;-77
2020/12/12 00:26:57;;;;;;;10.30;7.50;;;5.20;99.90;;;;;;4995729;28;20176;-76
2020/12/12 00:29:22;;;;;;;9.95;6.35;;;5.10;99.90;;;;;;4994622;28;20203;-77
2020/12/12 00:31:55;;;;;;;8.67;7.13;;;5.30;99.90;;;;;;4995114;28;20218;-77
2020/12/12 00:34:21;;;;;;;9.02;7.93;;;5.20;99.90;;;;;;4995476;28;20510;-77
2020/12/12 00:36:48;;;;;;;9.60;8.07;;;5.30;99.90;;;;;;4995394;28;20152;-77
2020/12/12 00:39:15;;;;;;;8.50;7.45;;;5.30;99.90;;;;;;4995610;28;20609;-77
2020/12/12 00:41:40;;;;;;;10.40;7.95;;;5.20;99.90;;;;;;4995221;28;20206;-78
2020/12/12 00:44:07;;;;;;;12.30;7.43;;;5.20;99.90;;;;;;4994978;28;20267;-78
2020/12/12 00:46:33;;;;;;;14.95;7.50;;;5.30;99.90;;;;;;4995099;28;20186;-77
2020/12/12 00:48:59;;;;;;;10.55;7.38;;;5.30;99.90;;;;;;4995011;28;20298;-76
2020/12/12 00:51:25;;;;;;;10.23;7.50;;;5.30;99.90;;;;;;4995154;28;20227;-77
2020/12/12 00:53:51;;;;;;;9.45;6.20;;;5.30;99.90;;;;;;4994643;28;20536;-77
2020/12/12 00:56:17;;;;;;;9.80;7.37;;;5.30;99.90;;;;;;4994954;28;20190;-76
2020/12/12 00:58:43;;;;;;;8.52;7.63;;;5.30;99.90;;;;;;4994896;28;20183;-77
2020/12/12 01:01:09;;;;;;;9.20;7.47;;;5.20;99.90;;;;;;4994919;28;20198;-76
2020/12/12 01:03:35;;;;;;;8.20;7.18;;;5.30;99.90;;;;;;4993343;28;20418;-78
2020/12/12 01:06:01;;;;;;;8.60;7.20;;;5.20;99.90;;;;;;4994677;28;20182;-77
2020/12/12 01:08:27;;;;;;;9.90;6.90;;;5.30;99.90;;;;;;4994841;28;20171;-76
2020/12/12 01:10:53;;;;;;;8.57;6.63;;;5.30;99.90;;;;;;4994592;28;20445;-77
2020/12/12 01:13:18;;;;;;;10.03;7.70;;;5.40;99.90;;;;;;4994357;28;20168;-77
2020/12/12 01:15:44;;;;;;;9.30;7.60;;;5.40;99.90;;;;;;4994430;28;20175;-77
2020/12/12 01:18:10;;;;;;;9.70;8.57;;;5.40;99.90;;;;;;4994394;28;20172;-78
2020/12/12 01:20:37;;;;;;;12.80;7.87;;;5.40;99.90;;;;;;4994526;28;20200;-77
2020/12/12 01:23:02;;;;;;;8.25;7.10;;;5.50;99.90;;;;;;4994316;28;20186;-76
2020/12/12 01:25:28;;;;;;;10.30;7.43;;;5.40;99.90;;;;;;4994454;28;20258;-77
2020/12/12 01:27:54;;;;;;;10.00;7.87;;;5.40;99.90;;;;;;4994306;28;20179;-77
2020/12/12 01:30:19;;;;;;;13.07;7.33;;;5.50;99.90;;;;;;4994213;28;20217;-76
2020/12/12 01:32:45;;;;;;;8.70;7.30;;;5.50;99.90;;;;;;4994095;28;20187;-77
2020/12/12 01:35:11;;;;;;;9.87;7.63;;;5.50;99.90;;;;;;4994302;28;20210;-78
2020/12/12 01:37:36;;;;;;;9.07;7.63;;;5.50;99.90;;;;;;4994167;28;20211;-78
2020/12/12 01:40:03;;;;;;;10.87;7.70;;;5.50;99.90;;;;;;4993857;28;20293;-76
2020/12/12 01:42:32;;;;;;;11.75;9.45;;;5.40;99.90;;;;;;4994142;28;20246;-75
2020/12/12 01:44:59;;;;;;;11.98;9.77;;;5.40;99.90;;;;;;4993989;28;20321;-77
2020/12/12 01:47:26;;;;;;;15.23;10.48;;;5.40;99.90;;;;;;4994150;28;20229;-78
2020/12/12 01:49:52;;;;;;;16.98;11.98;;;5.50;99.90;;;;;;4994064;28;20211;-77
2020/12/12 01:52:19;;;;;;;13.20;10.70;;;5.50;99.90;;;;;;4993638;28;20586;-77
2020/12/12 01:54:48;;;;;;;13.15;10.38;;;5.50;99.90;;;;;;4994145;28;20258;-77
2020/12/12 01:57:18;;;;;;;13.43;10.43;;;5.50;99.90;;;;;;4994096;28;20187;-77
2020/12/12 01:59:44;;;;;;;15.88;11.05;;;5.50;99.90;;;;;;4993963;28;20178;-77
2020/12/12 02:02:11;;;;;;;10.90;9.10;;;5.50;99.90;;;;;;4993373;28;20584;-76
2020/12/12 02:04:40;;;;;;;15.18;9.57;;;5.50;99.90;;;;;;4993773;28;20194;-77
2020/12/12 02:07:05;;;;;;;15.43;10.52;;;5.50;99.90;;;;;;4993866;28;20178;-78
2020/12/12 02:09:33;;;;;;;14.27;9.77;;;5.60;99.90;;;;;;4993813;28;20590;-77
2020/12/12 02:12:00;;;;;;;16.13;10.50;;;5.50;99.90;;;;;;4993835;28;20433;-78
2020/12/12 02:14:25;;;;;;;15.15;10.23;;;5.50;99.90;;;;;;4993677;28;20207;-77
2020/12/12 02:16:53;;;;;;;14.87;9.63;;;5.50;99.90;;;;;;4993809;28;20203;-78
2020/12/12 02:19:18;;;;;;;10.60;9.05;;;5.40;99.90;;;;;;4993677;28;20182;-77
2020/12/12 02:21:57;;;;;;;15.07;10.17;;;5.50;99.90;;;;;;4993544;28;20274;-79
2020/12/12 02:24:29;;;;;;;13.52;9.52;;;5.50;99.90;;;;;;4993613;28;20170;-77
2020/12/12 02:27:05;;;;;;;11.63;9.25;;;5.60;99.90;;;;;;4993619;28;20156;-77
2020/12/12 02:32:08;;;;;;;13.63;9.15;;;5.60;99.90;;;;;;4993426;28;20270;-78
2020/12/12 02:34:34;;;;;;;12.80;9.55;;;5.60;99.90;;;;;;4993673;28;20264;-77
2020/12/12 02:37:00;;;;;;;14.60;10.18;;;5.60;99.90;;;;;;4993734;28;20176;-77
2020/12/12 02:39:25;;;;;;;17.10;9.50;;;5.60;99.90;;;;;;4993814;28;20228;-78
2020/12/12 02:41:51;;;;;;;12.83;9.13;;;5.50;99.90;;;;;;4993327;28;20191;-78
2020/12/12 02:44:17;;;;;;;13.17;8.47;;;5.60;99.90;;;;;;4993635;28;20280;-76
2020/12/12 02:46:42;;;;;;;13.90;10.13;;;5.60;99.90;;;;;;4993505;28;20186;-77
2020/12/12 02:49:08;;;;;;;13.97;8.77;;;5.70;99.90;;;;;;4993483;28;20556;-78
2020/12/12 02:51:39;;;;;;;12.20;8.70;;;5.70;99.90;;;;;;4993748;28;20196;-77
2020/12/12 02:54:04;;;;;;;14.43;9.48;;;5.70;99.90;;;;;;4997032;28;20638;-78
2020/12/12 02:56:30;;;;;;;13.67;9.43;;;5.70;99.90;;;;;;4997092;28;20278;-79
2020/12/12 02:58:55;;;;;;;10.87;8.87;;;5.70;99.90;;;;;;4997175;28;20661;-76
2020/12/12 03:01:21;;;;;;;15.63;9.00;;;5.80;99.90;;;;;;4997187;28;20220;-77
2020/12/12 03:03:47;;;;;;;11.30;9.47;;;5.80;99.90;;;;;;4996948;28;20176;-77
2020/12/12 03:06:12;;;;;;;10.37;9.03;;;5.80;99.90;;;;;;4997129;28;20178;-78
2020/12/12 03:08:38;;;;;;;14.30;9.80;;;5.80;99.90;;;;;;4996839;28;20173;-76
2020/12/12 03:11:03;;;;;;;11.37;8.90;;;5.80;99.90;;;;;;4996895;28;20195;-76
2020/12/12 03:13:29;;;;;;;10.77;9.33;;;5.80;99.90;;;;;;4996789;28;20597;-75
2020/12/12 03:15:54;;;;;;;14.63;10.20;;;5.80;99.90;;;;;;4996717;28;20175;-77
2020/12/12 03:18:20;;;;;;;12.73;9.53;;;5.90;99.90;;;;;;4996799;28;20632;-76
2020/12/12 03:20:46;;;;;;;13.53;9.27;;;5.90;99.90;;;;;;4996581;28;20203;-76
2020/12/12 03:23:11;;;;;;;11.53;8.87;;;5.90;99.90;;;;;;4996405;28;20780;-75
2020/12/12 03:25:38;;;;;;;10.93;9.60;;;5.90;99.90;;;;;;4995391;28;20251;-77
2020/12/12 03:28:04;;;;;;;11.75;9.55;;;5.90;99.90;;;;;;4996615;28;20447;-76
2020/12/12 03:30:29;;;;;;;13.27;10.63;;;5.80;99.90;;;;;;4996632;28;20209;-74
2020/12/12 03:32:55;;;;;;;14.13;10.30;;;5.90;99.90;;;;;;4996271;28;20223;-75
2020/12/12 03:35:20;;;;;;;14.63;11.17;;;5.80;99.90;;;;;;4996650;28;20177;-77
2020/12/12 03:37:46;;;;;;;13.83;10.40;;;5.80;99.90;;;;;;4996516;28;20240;-76
2020/12/12 03:40:11;;;;;;;13.60;10.90;;;5.80;99.90;;;;;;4996383;28;20266;-77
2020/12/12 03:42:37;;;;;;;14.17;11.53;;;5.80;99.90;;;;;;4994802;28;20571;-76
2020/12/12 03:45:03;;;;;;;16.23;10.90;;;5.80;99.90;;;;;;4996271;28;20184;-76
2020/12/12 03:47:28;;;;;;;17.63;10.70;;;5.80;99.90;;;;;;4996234;28;20215;-76
2020/12/12 03:49:54;;;;;;;13.73;10.13;;;5.70;99.90;;;;;;4996411;28;20486;-76
2020/12/12 03:52:19;;;;;;;13.33;10.50;;;5.80;99.90;;;;;;4995786;28;20189;-76
2020/12/12 03:54:45;;;;;;;13.00;9.90;;;5.70;99.90;;;;;;4996306;28;20522;-76
2020/12/12 03:57:12;;;;;;;12.43;9.70;;;5.80;99.90;;;;;;4996016;28;20197;-76
2020/12/12 03:59:37;;;;;;;11.30;8.85;;;5.70;99.90;;;;;;4996004;28;20172;-76
2020/12/12 04:02:03;;;;;;;12.03;9.67;;;5.70;99.90;;;;;;4995732;28;20222;-75
2020/12/12 04:04:28;;;;;;;11.93;9.10;;;5.70;99.90;;;;;;4995674;28;20176;-75
2020/12/12 04:06:54;;;;;;;9.00;7.70;;;5.70;99.90;;;;;;4995941;28;20175;-75
2020/12/12 04:09:20;;;;;;;9.97;8.47;;;5.80;99.90;;;;;;4995744;28;20679;-77
2020/12/12 04:11:45;;;;;;;17.13;9.70;;;5.80;99.90;;;;;;4995648;28;20231;-76
2020/12/12 04:14:11;;;;;;;14.13;9.07;;;5.70;99.90;;;;;;4995657;28;20179;-74
2020/12/12 04:16:36;;;;;;;15.63;9.60;;;5.70;99.90;;;;;;4995670;28;20523;-77
2020/12/12 04:19:02;;;;;;;14.00;10.00;;;5.80;99.90;;;;;;4995593;28;20187;-76
2020/12/12 04:21:27;;;;;;;12.60;10.33;;;5.80;99.90;;;;;;4995451;28;20668;-76
2020/12/12 04:23:53;;;;;;;14.87;10.73;;;5.80;99.90;;;;;;4995308;28;20184;-75
2020/12/12 04:26:19;;;;;;;12.03;10.80;;;5.80;99.90;;;;;;4995758;28;20540;-76
2020/12/12 04:28:44;;;;;;;15.20;11.43;;;5.80;99.90;;;;;;4995386;28;20179;-75
2020/12/12 04:31:10;;;;;;;14.40;10.23;;;5.90;99.90;;;;;;4995388;28;20193;-76
2020/12/12 04:33:36;;;;;;;17.23;10.40;;;5.90;99.90;;;;;;4994980;28;20175;-75
2020/12/12 04:36:03;;;;;;;12.07;9.93;;;5.90;99.90;;;;;;4995441;28;20415;-77
2020/12/12 04:38:31;;;;;;;16.50;12.25;;;5.90;99.90;;;;;;4995296;28;20413;-76
2020/12/12 04:40:58;;;;;;;16.88;11.57;;;5.80;99.90;;;;;;4995058;28;20215;-75
2020/12/12 04:43:25;;;;;;;12.13;9.63;;;5.90;99.90;;;;;;4995101;28;20273;-75
2020/12/12 04:45:52;;;;;;;14.82;11.27;;;5.80;99.90;;;;;;4995349;28;20266;-76
2020/12/12 04:48:18;;;;;;;13.90;10.80;;;5.90;99.90;;;;;;4995332;28;20187;-75
2020/12/12 04:50:44;;;;;;;12.47;9.63;;;5.80;99.90;;;;;;4994875;28;20262;-75
2020/12/12 04:53:17;;;;;;;13.00;9.68;;;5.90;99.90;;;;;;4995061;28;20875;-76
2020/12/12 04:55:52;;;;;;;15.75;10.70;;;6.00;99.90;;;;;;4994666;28;20202;-77
2020/12/12 04:58:21;;;;;;;16.20;10.68;;;6.00;99.90;;;;;;4995019;28;20151;-76
2020/12/12 05:00:48;;;;;;;13.70;10.05;;;6.00;99.90;;;;;;4994733;28;20221;-77
2020/12/12 05:03:17;;;;;;;14.63;11.15;;;6.10;99.90;;;;;;4994535;28;20181;-75
2020/12/12 05:05:43;;;;;;;12.63;10.23;;;6.10;99.90;;;;;;4994822;28;20184;-76
2020/12/12 05:08:10;;;;;;;14.63;9.95;;;6.10;99.90;;;;;;4994862;28;20203;-77
2020/12/12 05:10:41;;;;;;;15.57;10.65;;;6.10;99.90;;;;;;4994696;28;20691;-77
2020/12/12 05:13:17;;;;;;;12.05;9.25;;;6.10;99.90;;;;;;4994368;28;20163;-78
2020/12/12 05:15:44;;;;;;;11.90;9.43;;;6.20;99.90;;;;;;4993911;28;20240;-77
2020/12/12 05:18:10;;;;;;;10.30;9.20;;;6.30;99.90;;;;;;4994580;28;20180;-77
2020/12/12 05:20:37;;;;;;;10.77;8.68;;;6.30;99.90;;;;;;4994411;28;20549;-76
2020/12/12 05:23:11;;;;;;;15.25;10.73;;;6.40;99.90;;;;;;4994124;28;20230;-77
2020/12/12 05:25:37;;;;;;;13.32;9.63;;;6.30;99.90;;;;;;4994582;28;20160;-76
2020/12/12 05:28:04;;;;;;;10.98;9.23;;;6.30;99.90;;;;;;4994942;28;20187;-76
2020/12/12 05:30:30;;;;;;;10.88;9.30;;;6.30;99.90;;;;;;4994308;28;20203;-77
2020/12/12 05:32:56;;;;;;;10.63;9.53;;;6.30;99.90;;;;;;4994262;28;20194;-77
2020/12/12 05:35:23;;;;;;;12.47;9.10;;;6.30;99.90;;;;;;4994525;28;20607;-77
2020/12/12 05:37:50;;;;;;;11.95;10.20;;;6.30;99.90;;;;;;4994345;28;20202;-77
2020/12/12 05:40:15;;;;;;;13.07;9.43;;;6.20;99.90;;;;;;4994045;28;20186;-76
2020/12/12 05:42:42;;;;;;;17.57;11.50;;;6.20;99.90;;;;;;4993916;28;20179;-77
2020/12/12 05:45:08;;;;;;;13.43;11.57;;;6.20;99.90;;;;;;4994139;28;20242;-76
2020/12/12 05:47:34;;;;;;;13.70;10.17;;;6.20;99.90;;;;;;4994122;28;20172;-76
2020/12/12 05:50:00;;;;;;;18.77;11.70;;;6.10;99.90;;;;;;4993763;28;20566;-77
2020/12/12 05:52:28;;;;;;;14.93;11.50;;;6.10;99.90;;;;;;4993839;28;20797;-76
2020/12/12 05:54:54;;;;;;;15.85;11.57;;;6.10;99.90;;;;;;4994146;28;20174;-75
2020/12/12 05:57:21;;;;;;;16.00;11.77;;;6.10;99.90;;;;;;4994112;28;20522;-76
2020/12/12 05:59:47;;;;;;;19.00;11.38;;;6.10;99.90;;;;;;4994187;28;20414;-75
2020/12/12 06:02:18;;;;;;;14.85;11.38;;;6.10;99.90;;;;;;4993617;28;20195;-75
2020/12/12 06:04:51;;;;;;;14.55;12.35;;;6.10;99.90;;;;;;4994106;28;20176;-76
2020/12/12 06:07:26;;;;;;;17.85;12.07;;;6.10;99.90;;;;;;4994010;28;20188;-75
2020/12/12 06:09:56;;;;;;;14.70;11.00;;;6.10;99.90;;;;;;4993747;28;20198;-76
2020/12/12 06:12:23;;;;;;;16.88;11.60;;;6.10;99.90;;;;;;4993342;28;20187;-74
2020/12/12 06:14:54;;;;;;;15.82;11.05;;;6.10;99.90;;;;;;4993792;28;20221;-75
2020/12/12 06:17:37;;;;;;;13.90;11.40;;;6.10;99.90;;;;;;4994064;28;20568;-76
2020/12/12 06:20:04;;;;;;;15.10;13.00;;;6.00;99.90;;;;;;4993608;28;20625;-76
2020/12/12 06:22:31;;;;;;;16.20;12.63;;;6.00;99.90;;;;;;4993366;28;20248;-76
2020/12/12 06:25:03;;;;;;;17.67;12.27;;;6.00;99.90;;;;;;4993649;28;20179;-76
2020/12/12 06:27:45;;;;;;;16.00;12.35;;;6.00;99.90;;;;;;4995573;28;20543;-75
2020/12/12 06:30:13;;;;;;;16.75;13.38;;;6.10;99.90;;;;;;4997562;28;20233;-75
2020/12/12 06:32:40;;;;;;;17.50;12.90;;;6.00;99.90;;;;;;4997467;28;20203;-75
2020/12/12 06:35:06;;;;;;;17.65;13.70;;;6.00;99.90;;;;;;4997822;28;20183;-76
2020/12/12 06:37:33;;;;;;;19.30;12.67;;;6.00;99.90;;;;;;4997530;28;20233;-76
2020/12/12 06:40:08;;;;;;;16.08;12.55;;;6.00;99.90;;;;;;4997410;28;20188;-76
2020/12/12 06:42:42;;;;;;;15.98;12.73;;;6.00;99.90;;;;;;4997200;28;20179;-75
2020/12/12 06:45:16;;;;;;;20.17;14.55;;;6.00;99.90;;;;;;4997418;28;20257;-76
2020/12/12 06:47:50;;;;;;;19.83;12.55;;;6.10;99.90;;;;;;4997569;28;20252;-75
2020/12/12 06:50:21;;;;;;;17.17;11.80;;;6.10;99.90;;;;;;4997290;28;20203;-75
2020/12/12 06:52:48;;;;;;;19.05;12.55;;;6.10;99.90;;;;;;4996984;28;20175;-75
2020/12/12 06:55:16;;;;;;;15.48;11.40;;;6.10;99.90;;;;;;5000920;28;20256;-75
2020/12/12 06:57:44;;;;;;;18.58;11.85;;;6.10;99.90;;;;;;4997272;28;20219;-75
2020/12/12 07:00:26;;;;;;;16.40;11.32;;;6.10;99.90;;;;;;4997232;28;20580;-75
2020/12/12 07:03:01;;;;;;;16.67;12.18;;;6.10;99.90;;;;;;4996800;28;20270;-75
2020/12/12 07:05:30;;;;;;;17.17;11.00;;;6.00;99.90;;;;;;4997115;28;20181;-75
2020/12/12 07:08:01;;;;;;;17.75;12.18;;;6.00;99.90;;;;;;4997096;28;20222;-75
2020/12/12 07:10:27;;;;;;;14.13;10.85;;;6.00;99.90;;;;;;4996841;28;20207;-74
2020/12/12 07:12:53;;;;;;;16.30;11.40;;;6.00;99.90;;;;;;4996592;28;20238;-75
2020/12/12 07:15:19;;;;;;;13.10;10.17;;;6.00;99.90;;;;;;4996951;28;20176;-74
2020/12/12 07:17:44;;;;;;;15.07;10.73;;;6.00;99.90;;;;;;4996869;28;20207;-75
2020/12/12 07:20:10;;;;;;;15.23;11.53;;;6.00;99.90;;;;;;4996758;28;20446;-75
2020/12/12 07:22:35;;;;;;;15.23;10.60;;;6.10;99.90;;;;;;4996337;28;20189;-75
2020/12/12 07:25:04;;;;;;;16.03;10.80;;;6.10;99.90;;;;;;4996649;28;20262;-75
2020/12/12 07:27:29;;;;;;;17.05;11.35;;;6.00;99.90;;;;;;4996753;28;20590;-75
2020/12/12 07:29:55;;;;;;;12.13;9.90;;;6.00;99.90;;;;;;4996513;28;20288;-75
2020/12/12 07:32:21;;;;;;;13.30;10.60;;;6.00;99.90;;;;;;4996296;28;20197;-75
2020/12/12 07:34:46;;;;;;;12.90;10.50;;;6.00;99.90;;;;;;4996474;28;20172;-75
2020/12/12 07:37:12;;;;;;;14.80;10.33;;;6.00;99.90;;;;;;4996215;28;20732;-75
2020/12/12 07:39:41;;;;;;;17.23;10.50;;;6.00;99.90;;;;;;4996526;28;20179;-76
2020/12/12 07:42:09;;;;;;;13.07;10.77;;;6.10;99.90;;;;;;4996192;28;20554;-75
2020/12/12 07:44:36;;;;;;;16.13;10.55;;;6.10;99.90;;;;;;4996197;28;20180;-75
2020/12/12 07:47:08;;;;;;;13.82;11.13;;;6.10;99.90;;;;;;4995021;28;20678;-75
2020/12/12 07:49:36;;;;;;;16.77;10.95;;;6.20;99.90;;;;;;4996230;28;20692;-75
2020/12/12 07:52:10;;;;;;;11.80;9.95;;;6.10;99.90;;;;;;4995878;28;20216;-75
2020/12/12 07:54:57;;;;;;;15.43;10.45;;;6.10;99.90;;;;;;4996350;28;20179;-75
2020/12/12 07:57:24;;;;;;;11.75;10.38;;;6.10;99.90;;;;;;4996303;28;20194;-75
2020/12/12 07:59:49;;;;;;;13.80;10.40;;;6.10;99.90;;;;;;4996159;28;20183;-75
2020/12/12 08:02:15;;;;;;;13.47;10.57;;;6.10;99.90;;;;;;4995907;28;20533;-74
2020/12/12 08:04:41;;;;;;;13.50;10.27;;;6.20;99.90;;;;;;4995837;28;20207;-76
2020/12/12 08:07:10;;;;;;;14.18;11.55;;;6.20;99.90;;;;;;4995807;28;20248;-75
2020/12/12 08:09:36;;;;;;;17.85;11.35;;;6.20;99.90;;;;;;4995959;28;20203;-75
2020/12/12 08:12:03;;;;;;;14.23;10.85;;;6.20;99.90;;;;;;4995639;28;20672;-75
2020/12/12 08:14:31;;;;;;;13.75;10.50;;;6.20;99.90;;;;;;4995824;28;20175;-74
2020/12/12 08:17:00;;;;;;;14.13;10.73;;;6.20;99.90;;;;;;4995702;28;20183;-75
2020/12/12 08:19:28;;;;;;;14.13;10.93;;;6.20;99.90;;;;;;4995782;28;20658;-75
2020/12/12 08:22:24;;;;;;;15.02;11.20;;;6.20;99.90;;;;;;4995288;28;20191;-75
2020/12/12 08:24:49;;;;;;;14.38;10.40;;;6.20;99.90;;;;;;4995180;28;20557;-75
2020/12/12 08:27:20;;;;;;;12.50;10.50;;;6.20;99.90;;;;;;4995400;28;20264;-75
2020/12/12 08:29:55;;;;;;;23.38;12.57;;;6.20;99.90;;;;;;4995621;28;20655;-75
2020/12/12 08:32:29;;;;;;;15.25;10.80;;;6.20;99.90;;;;;;4995273;28;20564;-75
2020/12/12 08:35:26;;;;;;;13.52;10.60;;;6.30;99.90;;;;;;4995380;28;20167;-75
2020/12/12 08:37:59;;;;;;;14.23;11.35;;;6.20;99.90;;;;;;4995436;28;20252;-75
2020/12/12 08:40:34;;;;;;;18.55;11.13;;;6.20;99.90;;;;;;4995620;28;20618;-75
2020/12/12 08:43:07;;;;;;;15.07;8.93;;;6.30;99.90;;;;;;4995141;28;20552;-75
2020/12/12 08:45:41;;;;;;;13.45;10.15;;;6.30;99.90;;;;;;4995530;28;20286;-75
2020/12/12 08:48:14;;;;;;;15.07;9.70;;;6.30;99.90;;;;;;4995262;28;20174;-75
2020/12/12 08:50:56;;;;;;;12.40;10.18;;;6.40;99.90;;;;;;4994170;28;20209;-75
2020/12/12 08:53:38;;;;;;;12.98;10.82;;;6.30;99.90;;;;;;4994730;28;20550;-76
2020/12/12 08:56:09;;;;;;;13.95;10.90;;;6.40;99.90;;;;;;4995187;28;20666;-75
2020/12/12 08:58:41;;;;;;;13.15;10.13;;;6.50;99.90;;;;;;4995149;28;20168;-75
2020/12/12 09:01:30;;;;;;;11.18;9.77;;;6.60;99.90;;;;;;4994829;28;20285;-76
2020/12/12 09:04:03;;;;;;;12.57;10.15;;;6.60;99.90;;;;;;4994605;28;20222;-75
2020/12/12 09:06:35;;;;;;;12.65;10.45;;;6.60;99.90;;;;;;4995000;28;20636;-75
2020/12/12 09:09:04;;;;;;;11.63;10.07;;;6.70;99.90;;;;;;4994867;28;20659;-76
2020/12/12 09:11:31;;;;;;;12.02;10.60;;;6.60;99.90;;;;;;4994507;28;20198;-77
2020/12/12 09:13:57;;;;;;;16.67;10.88;;;6.70;99.90;;;;;;4994683;28;20266;-78
2020/12/12 09:16:24;;;;;;;11.90;10.30;;;6.70;99.90;;;;;;4994825;28;20667;-77
2020/12/12 09:18:50;;;;;;;12.80;9.63;;;6.70;99.90;;;;;;4994516;28;20933;-77
2020/12/12 09:21:15;;;;;;;13.50;10.83;;;6.70;99.90;;;;;;4994566;28;20210;-77
2020/12/12 09:23:41;;;;;;;13.70;11.50;;;6.80;99.90;;;;;;4994051;28;20295;-77
2020/12/12 09:26:08;;;;;;;13.93;10.97;;;6.90;99.90;;;;;;4994306;28;20646;-75
2020/12/12 09:28:34;;;;;;;14.45;9.50;;;6.90;99.90;;;;;;4994438;28;20179;-75
2020/12/12 09:31:04;;;;;;;11.52;10.10;;;6.90;99.90;;;;;;4994280;28;20272;-76
2020/12/12 09:33:30;;;;;;;11.50;9.77;;;7.00;99.90;;;;;;4993547;28;20529;-75
2020/12/12 09:35:56;;;;;;;11.97;9.57;;;7.00;99.90;;;;;;4993616;28;20198;-76
2020/12/12 09:38:25;;;;;;;12.60;11.13;;;7.00;99.90;;;;;;4994373;28;20186;-75
2020/12/12 09:40:52;;;;;;;14.32;9.70;;;6.90;99.90;;;;;;4994442;28;20606;-76
2020/12/12 09:43:18;;;;;;;13.00;9.23;;;7.00;99.90;;;;;;4993523;28;20183;-76
2020/12/12 09:45:45;;;;;;;16.80;9.52;;;7.00;99.90;;;;;;4993411;28;20201;-75
2020/12/12 09:48:12;;;;;;;14.95;9.75;;;7.10;99.90;;;;;;4993872;28;20537;-76
2020/12/12 09:50:38;;;;;;;12.23;9.05;;;7.10;99.90;;;;;;4993916;28;20218;-75
2020/12/12 09:53:06;;;;;;;10.93;9.63;;;7.20;99.90;;;;;;4993627;28;20178;-75
2020/12/12 09:55:34;;;;;;;14.85;10.52;;;7.30;99.90;;;;;;4993552;28;20434;-75
2020/12/12 09:58:00;;;;;;;15.00;10.10;;;7.30;99.90;;;;;;4993915;28;20178;-76
2020/12/12 10:00:26;;;;;;;16.67;11.55;;;7.20;99.90;;;;;;4993626;28;20218;-74
2020/12/12 10:02:52;;;;;;;15.73;11.50;;;7.20;99.90;;;;;;4993566;28;20180;-76
2020/12/12 10:05:17;;;;;;;11.27;9.43;;;7.20;99.90;;;;;;4993938;28;20202;-76
2020/12/12 10:07:43;;;;;;;13.70;9.80;;;7.10;99.90;;;;;;4993773;28;20208;-76
2020/12/12 10:10:09;;;;;;;13.30;10.33;;;7.10;99.90;;;;;;4993827;28;20676;-76
2020/12/12 10:12:34;;;;;;;15.13;11.63;;;7.10;99.90;;;;;;4993596;28;20175;-75
2020/12/12 10:15:00;;;;;;;12.07;9.37;;;7.20;99.90;;;;;;4993719;28;20191;-76
2020/12/12 10:17:28;;;;;;;14.53;10.03;;;7.20;99.90;;;;;;4993724;28;20531;-75
2020/12/12 10:19:54;;;;;;;12.32;10.63;;;7.20;99.90;;;;;;4993552;28;20428;-76
2020/12/12 10:22:19;;;;;;;13.80;9.77;;;7.20;99.90;;;;;;4993441;28;20206;-75
2020/12/12 10:24:45;;;;;;;12.40;9.80;;;7.10;99.90;;;;;;4993521;28;20172;-75
2020/12/12 10:27:11;;;;;;;14.00;10.80;;;7.20;99.90;;;;;;4993609;28;20643;-76
2020/12/12 10:29:36;;;;;;;13.63;9.90;;;7.20;99.90;;;;;;4993698;28;20199;-76
2020/12/12 10:32:02;;;;;;;12.30;9.43;;;7.30;99.90;;;;;;4993508;28;20202;-76
2020/12/12 10:34:27;;;;;;;13.97;10.10;;;7.30;99.90;;;;;;4994278;28;20189;-76
2020/12/12 10:36:53;;;;;;;11.60;10.23;;;7.40;99.90;;;;;;4993577;28;20171;-76
2020/12/12 10:39:32;;;;;;;13.40;9.27;;;7.40;99.90;;;;;;4993159;28;20181;-75
2020/12/12 10:41:59;;;;;;;15.55;10.65;;;7.40;99.90;;;;;;4993337;28;20268;-76
2020/12/12 10:44:25;;;;;;;12.07;9.68;;;7.50;99.90;;;;;;4992185;28;20179;-75
2020/12/12 10:46:51;;;;;;;13.27;10.87;;;7.50;99.90;;;;;;4993311;28;20614;-76
2020/12/12 10:49:17;;;;;;;12.90;10.32;;;7.60;99.90;;;;;;4993323;28;20504;-76
2020/12/12 10:51:49;;;;;;;13.57;11.53;;;7.70;99.90;;;;;;4993417;28;20199;-76
2020/12/12 10:54:16;;;;;;;14.02;10.90;;;7.70;99.90;;;;;;4993285;28;20184;-75
2020/12/12 10:56:44;;;;;;;12.68;9.60;;;7.80;99.90;;;;;;4993404;28;20200;-76
2020/12/12 10:59:10;;;;;;;10.98;9.48;;;7.80;99.90;;;;;;4993425;28;20259;-76
2020/12/12 11:01:35;;;;;;;14.30;10.63;;;7.80;99.90;;;;;;4993309;28;20184;-75
2020/12/12 11:04:01;;;;;;;11.37;9.60;;;7.60;99.90;;;;;;4993001;28;20191;-76
2020/12/12 11:06:26;;;;;;;11.50;8.93;;;7.60;99.90;;;;;;4993399;28;20175;-76
2020/12/12 11:08:52;;;;;;;13.00;9.60;;;7.60;99.90;;;;;;4993367;28;20187;-76
2020/12/12 11:11:18;;;;;;;12.07;9.07;;;7.60;99.90;;;;;;4993305;28;20750;-75
2020/12/12 11:13:43;;;;;;;12.90;9.10;;;7.80;99.90;;;;;;4995111;28;20180;-76
2020/12/12 11:16:09;;;;;;;13.57;9.83;;;7.80;99.90;;;;;;4996988;28;20178;-76
2020/12/12 11:18:35;;;;;;;11.87;9.30;;;8.00;99.90;;;;;;4997172;28;20175;-76
2020/12/12 11:21:00;;;;;;;10.47;8.70;;;8.00;99.90;;;;;;4996858;28;20560;-76
2020/12/12 11:23:28;;;;;;;12.40;9.40;;;7.90;99.90;;;;;;4996515;28;20270;-76
2020/12/12 11:25:53;;;;;;;12.80;8.93;;;7.90;99.90;;;;;;4996932;28;20255;-75
2020/12/12 11:28:19;;;;;;;9.83;8.53;;;8.00;99.90;;;;;;4996613;28;20639;-76
2020/12/12 11:30:45;;;;;;;10.07;8.40;;;8.10;99.90;;;;;;4996409;28;20468;-76
2020/12/12 11:33:10;;;;;;;11.03;8.50;;;8.10;99.90;;;;;;4996484;28;20171;-76
2020/12/12 11:46:47;;;;;;;9.75;8.48;;;8.50;99.90;;;;;;4987954;28;20195;-76
2020/12/12 11:49:12;;;;;;;10.15;8.70;;;8.50;99.90;;;;;;4996425;28;20160;-76
2020/12/12 11:51:38;;;;;;;10.23;7.90;;;8.60;99.90;;;;;;4996381;28;20218;-77
2020/12/12 11:54:04;;;;;;;11.13;9.07;;;8.70;99.90;;;;;;4995950;28;20177;-76
2020/12/12 11:56:30;;;;;;;8.97;7.97;;;8.70;99.90;;;;;;4996066;28;20194;-76
2020/12/12 11:58:56;;;;;;;9.52;7.25;;;8.80;99.90;;;;;;4996153;28;20410;-76
2020/12/12 12:01:24;;;;;;;11.73;8.33;;;8.80;99.90;;;;;;4996062;28;20682;-76
2020/12/12 12:03:56;;;;;;;9.82;8.55;;;8.80;99.90;;;;;;4995799;28;20191;-76
2020/12/12 12:06:23;;;;;;;10.82;8.13;;;8.70;99.90;;;;;;4996292;28;20214;-75
2020/12/12 12:11:31;;;;;;;11.68;9.15;;;8.80;99.90;;;;;;4995823;28;20599;-76
2020/12/12 12:14:01;;;;;;;11.50;9.60;;;8.80;99.90;;;;;;4998004;28;20174;-77
2020/12/12 12:16:28;;;;;;;11.88;9.38;;;8.90;99.90;;;;;;4996710;28;20168;-77
2020/12/12 12:18:54;;;;;;;13.50;9.77;;;9.00;99.90;;;;;;4995810;28;20167;-76
2020/12/12 12:21:21;;;;;;;14.40;11.00;;;8.90;99.90;;;;;;4994512;28;20669;-76
2020/12/12 12:23:46;;;;;;;14.57;10.00;;;8.90;99.90;;;;;;4995350;28;20265;-78
2020/12/12 12:26:15;;;;;;;10.63;9.53;;;9.10;99.90;;;;;;4995693;28;20720;-76
2020/12/12 12:28:41;;;;;;;13.10;10.23;;;9.10;99.90;;;;;;4995558;28;20179;-76
2020/12/12 12:31:07;;;;;;;11.30;10.10;;;9.00;99.90;;;;;;4995353;28;20294;-76
2020/12/12 12:33:32;;;;;;;11.40;9.50;;;9.00;99.90;;;;;;4994877;28;20184;-78
2020/12/12 12:35:58;;;;;;;11.20;9.20;;;9.10;99.90;;;;;;4996056;28;20210;-77
2020/12/12 12:38:23;;;;;;;12.83;9.50;;;9.10;99.90;;;;;;4995104;28;20185;-77
2020/12/12 12:40:49;;;;;;;10.93;9.47;;;8.90;99.90;;;;;;4995020;28;20199;-77
2020/12/12 12:43:15;;;;;;;10.90;9.10;;;8.90;99.90;;;;;;4993984;28;20655;-77
2020/12/12 12:45:41;;;;;;;10.00;8.90;;;8.70;99.90;;;;;;4995403;28;20241;-76
2020/12/12 12:48:06;;;;;;;12.60;9.60;;;8.80;99.90;;;;;;4995381;28;20207;-76
2020/12/12 12:50:36;;;;;;;15.27;11.00;;;8.90;99.90;;;;;;4995052;28;20683;-78
2020/12/12 12:53:06;;;;;;;14.35;10.23;;;8.80;99.90;;;;;;4994551;28;20171;-77
2020/12/12 12:55:32;;;;;;;10.38;8.13;;;8.80;99.90;;;;;;4994909;28;20190;-77
2020/12/12 12:57:58;;;;;;;10.47;8.77;;;8.80;99.90;;;;;;4995236;28;20179;-79
2020/12/12 13:00:27;;;;;;;12.37;10.40;;;8.80;99.90;;;;;;4995021;28;20204;-77